Time;durP1;ratioP1;P1;durP2;ratioP2;P2;SDS_P1;SDS_P2;PMS_P1;PMS_P2;Temp;Humidity;BMP_temperature;BMP_pressure;BME280_temperature;BME280_humidity;BME280_pressure;Samples;Min_cycle;Max_cycle;Signal;HPM_P1;HPM_P2
2023/12/12 00:00:11;;;;;;;0.50;0.50;;;6.60;99.90;;;;;;5099359;27;20118;-80
2023/12/12 00:02:37;;;;;;;;;;;6.50;99.90;;;;;;5128358;27;20039;-78
2023/12/12 00:05:03;;;;;;;0.47;0.47;;;6.50;99.90;;;;;;5129357;27;19927;-79
2023/12/12 00:07:29;;;;;;;0.52;0.52;;;6.50;99.90;;;;;;5127697;27;20043;-78
2023/12/12 00:09:54;;;;;;;0.40;0.40;;;6.50;99.90;;;;;;5078394;27;20071;-79
2023/12/12 00:12:20;;;;;;;0.45;0.45;;;6.50;99.90;;;;;;5127632;27;20103;-77
2023/12/12 00:14:46;;;;;;;0.50;0.50;;;6.40;99.90;;;;;;5109563;27;20086;-79
2023/12/12 00:17:11;;;;;;;0.40;0.40;;;6.50;99.90;;;;;;5111932;27;20043;-79
2023/12/12 00:19:42;;;;;;;0.50;0.50;;;6.50;99.90;;;;;;5128913;27;20035;-78
2023/12/12 00:22:09;;;;;;;0.50;0.50;;;6.60;99.90;;;;;;5110732;27;20482;-80
2023/12/12 00:24:34;;;;;;;0.40;0.40;;;6.70;99.90;;;;;;5127517;27;20050;-77
2023/12/12 00:27:00;;;;;;;0.40;0.40;;;6.40;99.90;;;;;;5112357;27;20451;-80
2023/12/12 00:29:26;;;;;;;0.50;0.50;;;6.40;99.90;;;;;;5112404;27;20064;-76
2023/12/12 00:31:51;;;;;;;0.50;0.50;;;6.30;99.90;;;;;;5110712;27;20035;-80
2023/12/12 00:34:17;;;;;;;0.55;0.55;;;6.70;99.90;;;;;;5130136;27;20083;-79
2023/12/12 00:36:43;;;;;;;0.50;0.50;;;6.30;99.90;;;;;;5128046;27;20031;-79
2023/12/12 00:39:08;;;;;;;0.50;0.50;;;6.50;99.90;;;;;;5111770;27;20049;-80
2023/12/12 00:41:36;;;;;;;0.60;0.60;;;6.20;99.90;;;;;;5129707;27;20517;-79
2023/12/12 00:44:01;;;;;;;0.50;0.50;;;6.30;99.90;;;;;;5129852;27;20916;-80
2023/12/12 00:46:27;;;;;;;0.60;0.60;;;;;;;;;;5123352;27;20141;-79
2023/12/12 00:48:54;;;;;;;0.70;0.70;;;;;;;;;;5129771;27;20050;-79
2023/12/12 00:51:19;;;;;;;0.57;0.57;;;5.90;99.90;;;;;;5141782;27;20049;-78
2023/12/12 00:53:45;;;;;;;0.50;0.50;;;5.80;99.90;;;;;;5110897;27;20047;-79
2023/12/12 00:56:11;;;;;;;0.65;0.65;;;5.80;99.90;;;;;;5111616;27;20047;-80
2023/12/12 00:58:36;;;;;;;0.60;0.60;;;5.60;99.90;;;;;;5113076;27;20043;-78
2023/12/12 01:01:02;;;;;;;0.60;0.60;;;5.50;99.90;;;;;;5129124;27;20050;-79
2023/12/12 01:03:28;;;;;;;0.68;0.68;;;5.40;99.90;;;;;;5112431;27;20043;-77
2023/12/12 01:05:53;;;;;;;0.63;0.63;;;5.50;99.90;;;;;;5138544;27;20480;-81
2023/12/12 01:08:19;;;;;;;0.60;0.60;;;5.20;99.90;;;;;;5142311;27;20099;-79
2023/12/12 01:10:45;;;;;;;0.52;0.52;;;5.20;99.90;;;;;;5130840;27;20035;-76
2023/12/12 01:13:10;;;;;;;1.42;1.33;;;5.20;99.90;;;;;;5115079;27;20039;-78
2023/12/12 01:15:36;;;;;;;0.50;0.50;;;5.10;99.90;;;;;;5109547;27;20418;-79
2023/12/12 01:18:02;;;;;;;0.60;0.60;;;5.10;99.90;;;;;;5129256;27;20077;-76
2023/12/12 01:20:27;;;;;;;0.45;0.45;;;5.00;99.90;;;;;;5111825;27;20039;-79
2023/12/12 01:22:53;;;;;;;0.50;0.50;;;4.90;99.90;;;;;;5128279;27;20591;-80
2023/12/12 01:25:18;;;;;;;0.50;0.50;;;4.90;99.90;;;;;;5111436;27;20043;-80
2023/12/12 01:27:44;;;;;;;0.45;0.45;;;4.90;99.90;;;;;;5118387;27;20485;-76
2023/12/12 01:30:10;;;;;;;0.60;0.60;;;4.70;99.90;;;;;;5111941;27;20092;-77
2023/12/12 01:32:36;;;;;;;;;;;4.60;99.90;;;;;;5128598;27;20396;-75
2023/12/12 01:35:02;;;;;;;0.60;0.60;;;4.50;99.90;;;;;;5096787;28;19923;-77
2023/12/12 01:37:27;;;;;;;0.70;0.70;;;4.40;99.90;;;;;;5127936;27;20480;-76
2023/12/12 01:39:53;;;;;;;0.50;0.50;;;4.30;99.90;;;;;;5113754;27;20043;-79
2023/12/12 01:42:19;;;;;;;0.50;0.50;;;4.70;99.90;;;;;;5128408;27;20035;-80
2023/12/12 01:44:44;;;;;;;0.43;0.43;;;4.10;99.90;;;;;;5131801;27;20054;-79
2023/12/12 01:47:11;;;;;;;0.60;0.60;;;4.10;99.90;;;;;;5130309;27;20435;-77
2023/12/12 01:49:38;;;;;;;0.60;0.60;;;4.10;99.90;;;;;;5130256;27;20039;-79
2023/12/12 01:52:04;;;;;;;0.60;0.60;;;4.00;99.90;;;;;;5128515;27;20055;-79
2023/12/12 01:54:30;;;;;;;0.60;0.60;;;4.00;99.90;;;;;;5097909;28;20032;-80
2023/12/12 01:56:56;;;;;;;;;;;4.00;99.90;;;;;;5108594;27;20040;-78
2023/12/12 01:59:24;;;;;;;0.60;0.60;;;4.00;99.90;;;;;;5132292;27;19988;-77
2023/12/12 02:01:50;;;;;;;0.63;0.63;;;3.90;99.90;;;;;;5138107;27;20050;-80
2023/12/12 02:04:17;;;;;;;1.40;1.30;;;3.90;99.90;;;;;;5133140;27;20051;-79
2023/12/12 02:06:46;;;;;;;0.60;0.60;;;3.90;99.90;;;;;;5133538;27;20165;-80
2023/12/12 02:09:12;;;;;;;1.77;1.77;;;3.80;99.90;;;;;;5136167;27;20438;-81
2023/12/12 02:11:38;;;;;;;1.05;1.05;;;3.90;99.90;;;;;;5133593;27;20039;-80
2023/12/12 02:14:03;;;;;;;0.50;0.50;;;3.80;99.90;;;;;;5131341;27;20172;-78
2023/12/12 02:16:29;;;;;;;0.65;0.65;;;3.80;99.90;;;;;;5130623;27;20431;-79
2023/12/12 02:18:55;;;;;;;0.60;0.60;;;3.80;99.90;;;;;;5133172;27;20382;-76
2023/12/12 02:21:20;;;;;;;0.60;0.60;;;3.70;99.90;;;;;;5115325;27;20066;-79
2023/12/12 02:23:49;;;;;;;0.60;0.60;;;3.50;99.90;;;;;;5115884;27;20039;-76
2023/12/12 02:26:15;;;;;;;0.60;0.60;;;3.50;99.90;;;;;;5130861;27;20046;-78
2023/12/12 02:28:41;;;;;;;0.50;0.50;;;3.70;99.90;;;;;;5108071;27;20114;-80
2023/12/12 02:31:08;;;;;;;0.60;0.60;;;3.40;99.90;;;;;;5098857;27;20161;-80
2023/12/12 02:33:34;;;;;;;0.50;0.50;;;3.40;99.90;;;;;;5131393;27;20043;-79
2023/12/12 02:35:59;;;;;;;0.60;0.60;;;3.30;99.90;;;;;;5128532;27;20392;-78
2023/12/12 02:38:25;;;;;;;0.63;0.63;;;3.30;99.90;;;;;;5132127;27;20038;-79
2023/12/12 02:40:51;;;;;;;0.60;0.60;;;3.20;99.90;;;;;;5135494;27;20070;-79
2023/12/12 02:43:17;;;;;;;0.70;0.70;;;3.30;99.90;;;;;;5116009;27;20035;-79
2023/12/12 02:45:43;;;;;;;0.60;0.60;;;3.10;99.90;;;;;;5130201;27;20043;-79
2023/12/12 02:48:11;;;;;;;0.60;0.60;;;3.10;99.90;;;;;;5129830;27;20069;-78
2023/12/12 02:50:36;;;;;;;0.60;0.60;;;3.10;99.90;;;;;;5112507;27;20042;-76
2023/12/12 02:53:02;;;;;;;0.70;0.70;;;3.10;99.90;;;;;;5115266;27;20047;-78
2023/12/12 02:55:28;;;;;;;0.68;0.68;;;3.10;99.90;;;;;;5129661;27;20547;-77
2023/12/12 02:57:53;;;;;;;0.90;0.90;;;3.30;99.90;;;;;;5112439;27;20043;-76
2023/12/12 03:00:19;;;;;;;0.60;0.60;;;3.20;99.90;;;;;;5132037;27;20201;-82
2023/12/12 03:02:45;;;;;;;0.60;0.60;;;3.30;99.90;;;;;;5134879;27;20528;-80
2023/12/12 03:05:11;;;;;;;0.60;0.60;;;3.40;99.90;;;;;;5131863;27;20370;-81
2023/12/12 03:07:36;;;;;;;0.63;0.63;;;3.50;99.90;;;;;;5129541;27;20070;-78
2023/12/12 03:10:03;;;;;;;0.57;0.57;;;3.50;99.90;;;;;;5128570;27;20055;-78
2023/12/12 03:12:29;;;;;;;0.57;0.57;;;3.50;99.90;;;;;;5134470;27;20050;-80
2023/12/12 03:14:55;;;;;;;0.60;0.60;;;3.50;99.90;;;;;;5130973;27;20050;-80
2023/12/12 03:17:21;;;;;;;0.50;0.50;;;3.60;99.90;;;;;;5131030;27;20039;-79
2023/12/12 03:19:47;;;;;;;0.40;0.40;;;3.70;99.90;;;;;;5134336;27;20038;-77
2023/12/12 03:22:12;;;;;;;0.60;0.60;;;3.70;99.90;;;;;;5114668;27;20152;-75
2023/12/12 03:24:38;;;;;;;0.60;0.60;;;3.80;99.90;;;;;;5137145;27;20444;-79
2023/12/12 03:27:06;;;;;;;0.60;0.60;;;3.80;99.90;;;;;;5130436;27;20050;-75
2023/12/12 03:29:32;;;;;;;1.25;1.25;;;3.90;99.90;;;;;;5127948;27;20042;-78
2023/12/12 03:31:57;;;;;;;0.60;0.60;;;4.00;99.90;;;;;;5127563;27;20039;-78
2023/12/12 03:34:23;;;;;;;0.70;0.70;;;4.00;99.90;;;;;;5131886;27;20043;-77
2023/12/12 03:36:48;;;;;;;0.70;0.70;;;4.00;99.90;;;;;;5130914;27;20045;-77
2023/12/12 03:39:14;;;;;;;0.65;0.65;;;4.10;99.90;;;;;;5128656;27;20130;-76
2023/12/12 03:41:43;;;;;;;0.60;0.60;;;4.10;99.90;;;;;;5128742;27;20039;-79
2023/12/12 03:44:08;;;;;;;0.60;0.60;;;4.10;99.90;;;;;;5129728;27;20043;-79
2023/12/12 03:46:34;;;;;;;0.50;0.50;;;4.10;99.90;;;;;;5131180;27;20083;-78
2023/12/12 03:48:59;;;;;;;0.75;0.75;;;4.10;99.90;;;;;;5112712;27;20504;-81
2023/12/12 03:51:25;;;;;;;0.68;0.68;;;4.30;99.90;;;;;;5112342;27;20039;-79
2023/12/12 03:53:51;;;;;;;0.57;0.57;;;4.20;99.90;;;;;;5130488;27;20050;-76
2023/12/12 03:56:16;;;;;;;0.55;0.55;;;4.10;99.90;;;;;;5128271;27;20400;-80
2023/12/12 03:58:42;;;;;;;0.50;0.50;;;4.10;99.90;;;;;;5135139;27;20527;-79
2023/12/12 04:01:08;;;;;;;1.30;0.98;;;4.10;99.90;;;;;;5127249;27;20059;-79
2023/12/12 04:03:33;;;;;;;0.60;0.60;;;4.00;99.90;;;;;;5130521;27;20468;-77
2023/12/12 04:06:06;;;;;;;0.70;0.70;;;4.00;99.90;;;;;;5132154;27;20711;-81
2023/12/12 04:08:31;;;;;;;0.50;0.50;;;4.00;99.90;;;;;;5116447;27;20066;-79
2023/12/12 04:10:57;;;;;;;0.43;0.43;;;4.00;99.90;;;;;;5129797;27;20074;-77
2023/12/12 04:13:23;;;;;;;0.60;0.60;;;4.00;99.90;;;;;;5125647;27;20442;-79
2023/12/12 04:15:48;;;;;;;0.60;0.60;;;4.00;99.90;;;;;;5110906;27;20126;-77
2023/12/12 04:18:14;;;;;;;0.45;0.45;;;5.00;99.90;;;;;;5126944;27;20047;-78
2023/12/12 04:20:40;;;;;;;0.70;0.70;;;3.90;99.90;;;;;;5129279;27;20134;-78
2023/12/12 04:23:06;;;;;;;3.10;1.45;;;3.90;99.90;;;;;;5127193;27;20368;-78
2023/12/12 04:25:32;;;;;;;0.60;0.60;;;4.00;99.90;;;;;;5132117;27;20042;-79
2023/12/12 04:27:58;;;;;;;0.50;0.50;;;4.10;99.90;;;;;;5130139;27;20097;-78
2023/12/12 04:30:24;;;;;;;0.70;0.70;;;4.00;99.90;;;;;;5130777;27;20491;-75
2023/12/12 04:32:50;;;;;;;1.00;1.00;;;4.00;99.90;;;;;;5127489;27;20077;-76
2023/12/12 04:35:16;;;;;;;0.60;0.60;;;4.00;99.90;;;;;;5128954;27;20078;-80
2023/12/12 04:37:42;;;;;;;0.60;0.60;;;4.00;99.90;;;;;;5114803;27;20038;-75
2023/12/12 04:40:08;;;;;;;3.22;3.03;;;4.00;99.90;;;;;;5114220;27;20042;-79
2023/12/12 04:42:33;;;;;;;0.50;0.50;;;4.10;99.90;;;;;;5112328;27;20087;-76
2023/12/12 04:44:59;;;;;;;0.63;0.63;;;4.10;99.90;;;;;;5111522;27;20075;-79
2023/12/12 04:47:25;;;;;;;0.57;0.57;;;4.10;99.90;;;;;;5132049;27;20046;-78
2023/12/12 04:49:51;;;;;;;0.60;0.60;;;4.20;99.90;;;;;;5129462;27;20046;-82
2023/12/12 04:52:16;;;;;;;0.40;0.40;;;4.30;99.90;;;;;;5125214;27;20091;-76
2023/12/12 04:54:42;;;;;;;0.60;0.60;;;4.40;99.90;;;;;;5110406;27;20423;-79
2023/12/12 04:57:08;;;;;;;0.60;0.60;;;4.20;99.90;;;;;;5131655;27;20043;-78
2023/12/12 04:59:34;;;;;;;0.60;0.60;;;4.20;99.90;;;;;;5129333;27;20430;-78
2023/12/12 05:01:59;;;;;;;0.70;0.70;;;4.20;99.90;;;;;;5131079;27;20034;-77
2023/12/12 05:04:25;;;;;;;0.60;0.60;;;4.20;99.90;;;;;;5094529;27;20035;-78
2023/12/12 05:06:51;;;;;;;0.93;0.93;;;4.20;99.90;;;;;;5129054;27;20049;-76
2023/12/12 05:09:17;;;;;;;0.70;0.70;;;4.10;99.90;;;;;;5109300;27;20039;-78
2023/12/12 05:11:42;;;;;;;;;;;4.10;99.90;;;;;;5109634;27;20058;-81
2023/12/12 05:14:10;;;;;;;0.63;0.63;;;4.10;99.90;;;;;;5125882;27;19919;-76
2023/12/12 05:16:36;;;;;;;0.57;0.57;;;4.20;99.90;;;;;;5130284;27;20062;-78
2023/12/12 05:19:02;;;;;;;0.60;0.60;;;4.10;99.90;;;;;;5129132;27;20035;-79
2023/12/12 05:21:28;;;;;;;0.60;0.60;;;4.10;99.90;;;;;;5128879;27;20027;-80
2023/12/12 05:23:54;;;;;;;0.60;0.60;;;4.10;99.90;;;;;;5128122;27;20103;-81
2023/12/12 05:26:19;;;;;;;0.60;0.60;;;4.10;99.90;;;;;;5112619;28;20039;-79
2023/12/12 05:28:46;;;;;;;0.60;0.60;;;4.10;99.90;;;;;;5095305;28;20036;-80
2023/12/12 05:31:11;;;;;;;1.95;1.60;;;4.10;99.90;;;;;;5127840;27;20089;-77
2023/12/12 05:33:37;;;;;;;0.80;0.80;;;4.10;99.90;;;;;;5133817;27;20476;-79
2023/12/12 05:36:03;;;;;;;0.70;0.70;;;4.00;99.90;;;;;;5130248;27;20056;-78
2023/12/12 05:38:29;;;;;;;0.60;0.60;;;4.00;99.90;;;;;;5127965;27;20038;-80
2023/12/12 05:40:56;;;;;;;0.43;0.43;;;3.90;99.90;;;;;;5127785;27;20027;-79
2023/12/12 05:43:22;;;;;;;0.60;0.60;;;3.90;99.90;;;;;;5129866;27;20503;-77
2023/12/12 05:45:47;;;;;;;0.50;0.50;;;3.80;99.90;;;;;;5126608;27;20126;-80
2023/12/12 05:48:13;;;;;;;0.63;0.63;;;3.80;99.90;;;;;;5126384;27;20043;-80
2023/12/12 05:50:39;;;;;;;0.60;0.60;;;3.70;99.90;;;;;;5127459;27;20053;-76
2023/12/12 05:53:05;;;;;;;0.80;0.80;;;3.70;99.90;;;;;;5126846;28;20078;-80
2023/12/12 05:55:30;;;;;;;0.60;0.60;;;3.60;99.90;;;;;;5127418;27;20499;-78
2023/12/12 05:57:56;;;;;;;0.65;0.65;;;3.60;99.90;;;;;;5128346;28;20046;-77
2023/12/12 06:00:22;;;;;;;0.60;0.60;;;3.50;99.90;;;;;;5128623;27;20474;-80
2023/12/12 06:02:48;;;;;;;0.50;0.50;;;3.50;99.90;;;;;;5127249;27;20035;-79
2023/12/12 06:05:14;;;;;;;1.00;1.00;;;3.50;99.90;;;;;;5129170;27;20380;-80
2023/12/12 06:07:42;;;;;;;0.70;0.70;;;3.50;99.90;;;;;;5127433;27;20046;-80
2023/12/12 06:10:08;;;;;;;0.60;0.60;;;3.80;99.90;;;;;;5126312;27;20507;-79
2023/12/12 06:12:35;;;;;;;0.57;0.57;;;3.60;99.90;;;;;;5105721;28;20035;-78
2023/12/12 06:15:00;;;;;;;0.60;0.60;;;3.60;99.90;;;;;;5128003;27;20046;-79
2023/12/12 06:17:26;;;;;;;0.60;0.60;;;3.60;99.90;;;;;;5128258;27;20404;-78
2023/12/12 06:19:52;;;;;;;0.70;0.70;;;3.70;99.90;;;;;;5127118;27;20121;-82
2023/12/12 06:22:18;;;;;;;0.60;0.60;;;3.70;99.90;;;;;;5132622;27;20039;-76
2023/12/12 06:24:45;;;;;;;1.05;1.05;;;3.70;99.90;;;;;;5109139;28;20031;-80
2023/12/12 06:27:11;;;;;;;0.60;0.60;;;3.70;99.90;;;;;;5130476;27;20085;-80
2023/12/12 06:29:36;;;;;;;0.68;0.68;;;3.70;99.90;;;;;;5128620;27;20900;-80
2023/12/12 06:32:02;;;;;;;0.70;0.70;;;3.60;99.90;;;;;;5109997;27;20455;-78
2023/12/12 06:34:28;;;;;;;0.98;0.98;;;3.60;99.90;;;;;;5090473;27;20391;-81
2023/12/12 06:36:54;;;;;;;0.85;0.85;;;3.60;99.90;;;;;;5089602;28;20060;-79
2023/12/12 06:39:20;;;;;;;0.50;0.50;;;3.70;99.90;;;;;;5125407;27;20031;-78
2023/12/12 06:41:46;;;;;;;0.70;0.70;;;3.50;99.90;;;;;;5108604;27;20057;-81
2023/12/12 06:44:11;;;;;;;0.70;0.70;;;3.40;99.90;;;;;;5130498;27;20080;-82
2023/12/12 06:46:37;;;;;;;0.60;0.60;;;3.30;99.90;;;;;;5130043;27;20074;-79
2023/12/12 06:49:06;;;;;;;0.60;0.60;;;3.20;99.90;;;;;;5132902;27;20133;-78
2023/12/12 06:51:32;;;;;;;1.02;0.68;;;3.40;99.90;;;;;;5113233;27;20061;-78
2023/12/12 06:53:58;;;;;;;0.70;0.70;;;3.00;99.90;;;;;;5128670;27;20523;-80
2023/12/12 06:56:25;;;;;;;0.60;0.60;;;3.00;99.90;;;;;;5124602;27;20122;-77
2023/12/12 06:58:51;;;;;;;0.50;0.50;;;2.90;99.90;;;;;;5130010;27;20100;-82
2023/12/12 07:01:17;;;;;;;0.60;0.60;;;2.90;99.90;;;;;;5131175;27;20039;-76
2023/12/12 07:03:42;;;;;;;;;;;3.20;99.90;;;;;;5087495;27;20043;-80
2023/12/12 07:06:09;;;;;;;0.60;0.60;;;2.90;99.90;;;;;;5125202;27;20265;-79
2023/12/12 07:08:35;;;;;;;0.70;0.70;;;2.90;99.90;;;;;;5108654;27;20179;-78
2023/12/12 07:11:01;;;;;;;0.60;0.60;;;3.00;99.90;;;;;;5127318;27;20496;-79
2023/12/12 07:13:27;;;;;;;0.60;0.60;;;3.00;99.90;;;;;;5127931;27;20034;-80
2023/12/12 07:15:52;;;;;;;;;;;3.00;99.90;;;;;;5111296;27;20555;-80
2023/12/12 07:18:18;;;;;;;0.50;0.50;;;3.20;99.90;;;;;;5129289;27;19970;-78
2023/12/12 07:20:44;;;;;;;0.60;0.60;;;3.00;99.90;;;;;;5131048;27;20111;-81
2023/12/12 07:23:10;;;;;;;0.68;0.68;;;3.00;99.90;;;;;;5131351;27;20077;-78
2023/12/12 07:25:36;;;;;;;0.50;0.50;;;3.00;99.90;;;;;;5127697;27;20039;-80
2023/12/12 07:28:03;;;;;;;0.60;0.60;;;2.90;99.90;;;;;;5129386;27;20038;-80
2023/12/12 07:30:28;;;;;;;0.50;0.50;;;2.90;99.90;;;;;;5131857;27;20084;-79
2023/12/12 07:32:55;;;;;;;0.60;0.60;;;2.90;99.90;;;;;;5093939;27;20092;-79
2023/12/12 07:35:21;;;;;;;0.60;0.60;;;2.90;99.90;;;;;;5129688;27;20035;-79
2023/12/12 07:37:46;;;;;;;0.55;0.55;;;2.90;99.90;;;;;;5128044;27;20403;-79
2023/12/12 07:40:13;;;;;;;0.60;0.60;;;2.90;99.90;;;;;;5127194;27;20078;-77
2023/12/12 07:42:39;;;;;;;0.60;0.60;;;2.90;99.90;;;;;;5114783;27;20039;-78
2023/12/12 07:45:06;;;;;;;0.70;0.70;;;3.00;99.90;;;;;;5128907;27;20483;-80
2023/12/12 07:47:33;;;;;;;0.70;0.70;;;3.20;99.90;;;;;;5117087;27;20445;-77
2023/12/12 07:49:59;;;;;;;0.60;0.60;;;3.30;99.90;;;;;;5130664;27;20163;-80
2023/12/12 07:52:26;;;;;;;;;;;3.20;99.90;;;;;;5112759;27;20051;-77
2023/12/12 07:54:52;;;;;;;0.70;0.70;;;3.30;99.90;;;;;;5120298;27;19919;-77
2023/12/12 07:57:17;;;;;;;0.60;0.60;;;3.50;99.90;;;;;;5126164;27;20160;-79
2023/12/12 07:59:44;;;;;;;0.63;0.63;;;3.60;99.90;;;;;;5077769;27;20096;-77
2023/12/12 08:02:10;;;;;;;0.60;0.60;;;3.70;99.90;;;;;;5111092;27;20623;-78
2023/12/12 08:04:36;;;;;;;0.65;0.65;;;3.70;99.90;;;;;;5085047;27;20122;-78
2023/12/12 08:07:03;;;;;;;0.70;0.70;;;3.90;99.90;;;;;;5136721;27;20043;-79
2023/12/12 08:09:29;;;;;;;0.60;0.60;;;4.00;99.90;;;;;;5130048;27;20491;-79
2023/12/12 08:11:55;;;;;;;0.57;0.57;;;4.00;99.90;;;;;;5136883;27;20095;-80
2023/12/12 08:14:21;;;;;;;2.25;1.27;;;4.10;99.90;;;;;;5134152;27;20046;-80
2023/12/12 08:16:47;;;;;;;;;;;4.20;99.90;;;;;;5137222;27;20050;-75
2023/12/12 08:19:13;;;;;;;0.60;0.60;;;4.20;99.90;;;;;;5138940;27;19919;-79
2023/12/12 08:21:40;;;;;;;0.57;0.57;;;4.20;99.90;;;;;;5135295;27;20022;-77
2023/12/12 08:24:06;;;;;;;0.60;0.60;;;4.20;99.90;;;;;;5134288;27;20043;-76
2023/12/12 08:26:44;;;;;;;0.50;0.50;;;4.20;99.90;;;;;;5137912;27;20449;-78
2023/12/12 08:29:17;;;;;;;0.57;0.57;;;4.20;99.90;;;;;;5129734;27;20035;-76
2023/12/12 08:31:42;;;;;;;0.60;0.60;;;4.30;99.90;;;;;;5137410;27;20043;-79
2023/12/12 08:34:09;;;;;;;0.60;0.60;;;4.30;99.90;;;;;;5135677;27;20073;-78
2023/12/12 08:36:35;;;;;;;;;;;4.40;99.90;;;;;;5137189;27;20123;-76
2023/12/12 08:39:00;;;;;;;0.52;0.52;;;4.50;99.90;;;;;;5137130;27;20065;-79
2023/12/12 08:41:31;;;;;;;0.60;0.60;;;4.40;99.90;;;;;;5137990;27;20046;-80
2023/12/12 08:43:58;;;;;;;0.88;0.88;;;4.50;99.90;;;;;;5120511;27;20476;-76
2023/12/12 08:46:26;;;;;;;0.47;0.47;;;4.50;99.90;;;;;;5129377;27;20047;-80
2023/12/12 08:48:56;;;;;;;0.40;0.40;;;4.50;99.90;;;;;;5130832;27;20043;-82
2023/12/12 08:51:24;;;;;;;0.50;0.50;;;4.50;99.90;;;;;;5132813;27;20069;-77
2023/12/12 08:53:51;;;;;;;0.57;0.57;;;4.60;99.90;;;;;;5137446;27;20042;-79
2023/12/12 08:56:17;;;;;;;0.50;0.50;;;4.60;99.90;;;;;;5121705;27;20043;-78
2023/12/12 08:58:43;;;;;;;;;;;4.80;99.90;;;;;;5138950;27;20102;-76
2023/12/12 09:01:09;;;;;;;0.45;0.45;;;4.80;99.90;;;;;;5136880;27;20006;-76
2023/12/12 09:03:35;;;;;;;;;;;4.90;99.90;;;;;;5135723;27;20035;-78
2023/12/12 09:06:01;;;;;;;0.47;0.47;;;4.90;99.90;;;;;;5117751;27;19915;-82
2023/12/12 09:08:27;;;;;;;0.50;0.50;;;4.70;99.90;;;;;;5131391;27;20038;-77
2023/12/12 09:10:53;;;;;;;0.55;0.55;;;4.90;99.90;;;;;;5098850;27;20404;-76
2023/12/12 09:13:19;;;;;;;0.52;0.52;;;4.90;99.90;;;;;;5134676;27;20087;-79
2023/12/12 09:15:45;;;;;;;0.50;0.50;;;4.90;99.90;;;;;;5128436;27;20051;-82
2023/12/12 09:18:10;;;;;;;0.70;0.70;;;4.90;99.90;;;;;;5130097;27;20052;-76
2023/12/12 09:20:36;;;;;;;0.60;0.60;;;4.90;99.90;;;;;;5129229;27;20030;-77
2023/12/12 09:23:02;;;;;;;0.60;0.60;;;4.90;99.90;;;;;;5124437;27;20043;-76
2023/12/12 09:25:27;;;;;;;0.60;0.60;;;5.00;99.90;;;;;;5125486;27;20043;-77
2023/12/12 09:27:53;;;;;;;1.15;1.05;;;5.30;99.90;;;;;;5125367;27;20114;-80
2023/12/12 09:30:19;;;;;;;0.98;0.98;;;4.90;99.90;;;;;;5090133;27;20058;-80
2023/12/12 09:32:44;;;;;;;0.60;0.60;;;4.80;99.90;;;;;;5106543;28;20484;-79
2023/12/12 09:35:10;;;;;;;0.50;0.50;;;4.80;99.90;;;;;;5100306;27;20403;-81
2023/12/12 09:37:36;;;;;;;;;;;4.90;99.90;;;;;;5095578;27;20461;-81
2023/12/12 09:40:04;;;;;;;0.50;0.50;;;4.90;99.90;;;;;;5129254;27;19969;-82
2023/12/12 09:42:34;;;;;;;1.27;1.27;;;4.80;99.90;;;;;;5126167;27;20051;-77
2023/12/12 09:45:03;;;;;;;0.50;0.50;;;4.80;99.90;;;;;;5123762;27;20042;-83
2023/12/12 09:47:30;;;;;;;0.57;0.57;;;4.80;99.90;;;;;;5113159;27;20696;-77
2023/12/12 09:49:58;;;;;;;0.40;0.40;;;4.80;99.90;;;;;;5126087;27;20049;-77
2023/12/12 09:52:34;;;;;;;0.50;0.50;;;4.70;99.90;;;;;;5108827;27;20042;-78
2023/12/12 09:55:00;;;;;;;0.50;0.50;;;4.70;99.90;;;;;;5128061;27;20099;-78
2023/12/12 09:57:28;;;;;;;1.30;1.20;;;4.80;99.90;;;;;;5132982;27;20080;-76
2023/12/12 09:59:54;;;;;;;0.60;0.60;;;4.90;99.90;;;;;;5130946;27;20045;-78
2023/12/12 10:02:22;;;;;;;0.55;0.55;;;4.70;99.90;;;;;;5093398;28;20039;-78
2023/12/12 10:04:51;;;;;;;0.60;0.60;;;4.70;99.90;;;;;;5126064;27;20046;-78
2023/12/12 10:07:18;;;;;;;0.60;0.60;;;4.70;99.90;;;;;;5138309;27;20043;-79
2023/12/12 10:09:44;;;;;;;0.50;0.50;;;4.70;99.90;;;;;;5125355;27;20549;-78
2023/12/12 10:12:10;;;;;;;0.60;0.60;;;4.80;99.90;;;;;;5126995;28;20456;-78
2023/12/12 10:14:38;;;;;;;0.50;0.50;;;4.80;99.90;;;;;;5124070;27;20047;-81
2023/12/12 10:17:04;;;;;;;0.50;0.50;;;4.80;99.90;;;;;;5130585;27;20137;-79
2023/12/12 10:19:31;;;;;;;0.55;0.55;;;4.80;99.90;;;;;;5117139;27;20114;-77
2023/12/12 10:21:59;;;;;;;;;;;4.90;99.90;;;;;;5133579;27;20043;-77
2023/12/12 10:24:25;;;;;;;0.60;0.60;;;4.80;99.90;;;;;;5112645;27;21139;-80
2023/12/12 10:26:51;;;;;;;0.40;0.40;;;4.90;99.90;;;;;;5137089;27;20035;-81
2023/12/12 10:29:19;;;;;;;1.65;1.23;;;4.90;99.90;;;;;;5132623;27;20043;-79
2023/12/12 10:31:46;;;;;;;0.55;0.55;;;4.90;99.90;;;;;;5127066;27;20092;-78
2023/12/12 10:34:12;;;;;;;0.70;0.70;;;4.90;99.90;;;;;;5136072;27;20444;-79
2023/12/12 10:36:41;;;;;;;0.50;0.50;;;4.90;99.90;;;;;;5122768;27;20121;-77
2023/12/12 10:39:12;;;;;;;0.45;0.45;;;5.00;99.90;;;;;;5135178;27;20031;-76
2023/12/12 10:41:38;;;;;;;0.55;0.55;;;4.90;99.90;;;;;;5137281;27;20039;-77
2023/12/12 10:44:06;;;;;;;0.52;0.52;;;5.00;99.90;;;;;;5131787;27;20050;-77
2023/12/12 10:46:36;;;;;;;0.60;0.60;;;5.00;99.90;;;;;;5112402;27;20089;-80
2023/12/12 10:49:02;;;;;;;0.65;0.65;;;5.00;99.90;;;;;;5129915;27;20042;-79
2023/12/12 10:51:28;;;;;;;0.77;0.77;;;5.10;99.90;;;;;;5124615;27;20048;-77
2023/12/12 10:53:54;;;;;;;;;;;5.10;99.90;;;;;;5111075;27;20085;-77
2023/12/12 10:56:20;;;;;;;0.50;0.50;;;5.20;99.90;;;;;;5134511;27;19919;-83
2023/12/12 10:58:48;;;;;;;0.50;0.50;;;5.20;99.90;;;;;;5119527;27;20075;-80
2023/12/12 11:01:15;;;;;;;0.50;0.50;;;5.30;99.90;;;;;;5131648;27;20109;-81
2023/12/12 11:03:41;;;;;;;0.45;0.45;;;5.20;99.90;;;;;;5131920;27;20038;-77
2023/12/12 11:06:12;;;;;;;0.60;0.60;;;5.30;99.90;;;;;;5114323;27;20052;-76
2023/12/12 11:08:39;;;;;;;0.57;0.57;;;5.20;99.90;;;;;;5131539;27;20483;-78
2023/12/12 11:11:11;;;;;;;0.50;0.50;;;5.30;99.90;;;;;;5131809;27;20053;-76
2023/12/12 11:13:39;;;;;;;0.88;0.88;;;5.30;99.90;;;;;;5108071;27;20074;-77
2023/12/12 11:16:07;;;;;;;0.50;0.50;;;5.30;99.90;;;;;;5142521;27;21295;-76
2023/12/12 11:18:37;;;;;;;0.50;0.50;;;5.40;99.90;;;;;;5101458;27;20039;-76
2023/12/12 11:21:04;;;;;;;0.85;0.85;;;5.30;99.90;;;;;;5134441;27;20161;-78
2023/12/12 11:23:54;;;;;;;0.50;0.50;;;5.30;99.90;;;;;;5130486;27;20124;-77
2023/12/12 11:26:26;;;;;;;0.50;0.50;;;5.20;99.90;;;;;;5099583;27;20074;-83
2023/12/12 11:28:53;;;;;;;0.50;0.50;;;5.20;99.90;;;;;;5124374;27;20046;-78
2023/12/12 11:31:25;;;;;;;0.40;0.40;;;5.20;99.90;;;;;;5129048;27;20414;-79
2023/12/12 11:34:05;;;;;;;0.50;0.50;;;5.20;99.90;;;;;;5127649;27;20488;-74
2023/12/12 11:36:52;;;;;;;0.55;0.55;;;5.30;99.90;;;;;;5130741;27;20043;-77
2023/12/12 11:39:29;;;;;;;0.50;0.50;;;5.30;99.90;;;;;;5130242;27;20332;-80
2023/12/12 11:41:58;;;;;;;1.58;0.80;;;5.40;99.90;;;;;;5131610;27;20093;-80
2023/12/12 11:44:24;;;;;;;0.50;0.50;;;5.40;99.90;;;;;;5134893;27;20047;-77
2023/12/12 11:46:51;;;;;;;0.50;0.50;;;5.50;99.90;;;;;;5135332;27;20031;-79
2023/12/12 11:49:21;;;;;;;0.50;0.50;;;5.50;99.90;;;;;;5134423;27;20047;-77
2023/12/12 11:51:49;;;;;;;0.47;0.47;;;5.50;99.90;;;;;;5127071;27;20086;-76
2023/12/12 11:54:34;;;;;;;0.40;0.40;;;5.60;99.90;;;;;;5129582;27;20050;-78
2023/12/12 11:57:01;;;;;;;0.50;0.50;;;5.70;99.90;;;;;;5108072;27;20043;-79
2023/12/12 11:59:28;;;;;;;0.50;0.50;;;5.70;99.90;;;;;;5132297;27;20418;-76
2023/12/12 12:01:55;;;;;;;0.50;0.50;;;5.80;99.90;;;;;;5132286;27;20164;-78
2023/12/12 12:04:22;;;;;;;0.50;0.50;;;5.80;99.90;;;;;;5125965;27;20111;-80
2023/12/12 12:06:52;;;;;;;0.60;0.60;;;5.80;99.90;;;;;;5121055;27;20042;-80
2023/12/12 12:09:19;;;;;;;0.40;0.40;;;5.80;99.90;;;;;;5123427;27;20043;-77
2023/12/12 12:11:49;;;;;;;;;;;5.80;99.90;;;;;;5118249;27;20522;-77
2023/12/12 12:14:20;;;;;;;0.40;0.40;;;5.80;99.90;;;;;;5125355;27;20014;-79
2023/12/12 12:16:46;;;;;;;0.50;0.50;;;5.90;99.90;;;;;;5123582;27;20082;-79
2023/12/12 12:19:32;;;;;;;0.50;0.50;;;5.90;99.90;;;;;;5134740;27;20050;-78
2023/12/12 12:22:17;;;;;;;0.50;0.50;;;5.90;99.90;;;;;;5134357;27;20452;-78
2023/12/12 12:24:49;;;;;;;0.60;0.60;;;5.90;99.90;;;;;;5131300;27;20053;-76
2023/12/12 12:27:14;;;;;;;0.50;0.50;;;5.80;99.90;;;;;;5124187;27;20047;-78
2023/12/12 12:29:41;;;;;;;0.90;0.90;;;5.80;99.90;;;;;;5109276;27;20039;-79
2023/12/12 12:32:17;;;;;;;0.73;0.73;;;5.70;99.90;;;;;;5108507;27;20188;-78
2023/12/12 12:34:44;;;;;;;0.88;0.88;;;5.70;99.90;;;;;;5124598;27;20148;-79
2023/12/12 12:37:32;;;;;;;0.45;0.45;;;5.80;99.90;;;;;;5098531;27;20496;-79
2023/12/12 12:39:58;;;;;;;0.98;0.98;;;5.80;99.90;;;;;;5124494;27;20487;-76
2023/12/12 12:42:37;;;;;;;0.50;0.50;;;5.90;99.90;;;;;;5128968;27;20099;-79
2023/12/12 12:45:04;;;;;;;0.50;0.50;;;6.40;99.90;;;;;;5108823;27;20038;-82
2023/12/12 12:47:31;;;;;;;0.50;0.50;;;5.90;99.90;;;;;;5114471;27;20051;-78
2023/12/12 12:49:58;;;;;;;0.50;0.50;;;5.80;99.90;;;;;;5129204;27;20695;-80
2023/12/12 12:52:24;;;;;;;0.60;0.60;;;5.90;99.90;;;;;;5128600;27;20039;-78
2023/12/12 12:54:51;;;;;;;0.57;0.57;;;6.00;99.90;;;;;;5126686;27;20061;-80
2023/12/12 12:57:18;;;;;;;0.50;0.50;;;5.90;99.90;;;;;;5136217;27;20748;-79
2023/12/12 12:59:44;;;;;;;0.50;0.50;;;5.90;99.90;;;;;;5111245;27;20039;-77